Terminal Aerodrome Forecast
Issued by NWS

Home | Current Version | Previous Version | Text Only | Print | Product List | Glossary On
Versions: 1 2 3 4 5 6 7 8 9 10 11 12 13 14 15 16 17 18 19 20 21 22 23 24 25 26 27 28 29 30 31 32 33 34 35 36 37
000
FTUS41 KALY 242337
TAFPSF
TAF
KPSF 242337Z 2500/2524 VRB05KT P6SM SCT150 BKN250
     FM250400 12004KT P6SM BKN120
     FM250800 09006KT P6SM OVC070
     FM251100 09009G15KT 6SM -RA BR OVC050
     FM251400 08010G18KT 3SM -RA BR SCT008 OVC015
     FM252100 08012G21KT 2SM -RA BR BKN008=

USA.gov is the U.S. government's official web portal to all federal, state and local government web resources and services.